F/V Pasiphae 2 — FMFN — position and weather

sailwx.info

Track history (hours):
 
Tides and Currents Weather Stations Pressure Air Temp Water Temp Dewpoint Dewpoint Depression Visibility Wind Speed Wind Dir Waves Ship Positions

F/V Pasiphae 2

Last reported at 2017-Nov-19 01:24 UTC. Time now 2017-Nov-19 21:54 UTC.
Position N 46°37' W 002°59'.

Length 14 m.

Type: Fishing. MMSI: 228224800.

Date/timePositionNaut miles runAvg speedWind from/ knotsBaromVisibWave heightAir tempDewpointWater temp
2017-Nov-19 01:24N 46°37' W 002°59'9 1.0
2017-Nov-18 16:55N 46°33' W 003°10'1 1.2
2017-Nov-18 15:46N 46°34' W 003°10'40 4.3
2017-Nov-18 06:35N 47°13' W 003°22'3 8.6
2017-Nov-18 06:16N 47°16' W 003°22'4 8.8
2017-Nov-18 05:52N 47°20' W 003°22'3 8.6
2017-Nov-18 05:29N 47°23' W 003°22'4 8.5
2017-Nov-18 05:00N 47°27' W 003°22'4 8.6
2017-Nov-18 04:30N 47°31' W 003°22'4 8.7
2017-Nov-18 04:00N 47°36' W 003°23'4 8.8
2017-Nov-18 03:30N 47°40' W 003°22'4 7.3
2017-Nov-18 03:00N 47°44' W 003°22'0 0.2
2017-Nov-18 02:30N 47°44' W 003°22'0 0.3
2017-Nov-18 02:00N 47°44' W 003°22'0 0.0
2017-Nov-18 01:30N 47°44' W 003°22'0 0.0
2017-Nov-18 01:00N 47°44' W 003°22'0 0.0
2017-Nov-18 00:30N 47°44' W 003°22'4 7.8
2017-Nov-18 00:00N 47°40' W 003°22'4 8.9
2017-Nov-17 23:30N 47°35' W 003°23'4 8.8
2017-Nov-17 23:00N 47°33' W 003°28'3 5.6
2017-Nov-17 22:30N 47°30' W 003°30'2 3.9
2017-Nov-17 22:00N 47°28' W 003°31'2 3.8
2017-Nov-17 21:30N 47°27' W 003°30'2 3.9
2017-Nov-17 21:00N 47°25' W 003°29'1 2.9
2017-Nov-17 20:30N 47°26' W 003°28'2 3.7
2017-Nov-17 20:00N 47°28' W 003°30'2 3.6
2017-Nov-17 19:30N 47°30' W 003°30'2 3.4
2017-Nov-17 19:00N 47°31' W 003°30'1 2.9
2017-Nov-17 18:30N 47°31' W 003°33'2 3.2
2017-Nov-17 18:00N 47°30' W 003°32'2 3.6
2017-Nov-17 17:30N 47°28' W 003°31'2 3.6
2017-Nov-17 17:00N 47°26' W 003°30'2 3.4
2017-Nov-17 16:30N 47°27' W 003°33'2 3.7
2017-Nov-17 16:00N 47°27' W 003°36'2 0.3
2017-Nov-17 10:04N 47°29' W 003°35'0 3.8
2017-Nov-17 10:00N 47°29' W 003°35'2 3.6
2017-Nov-17 09:30N 47°31' W 003°36'1 3.1
2017-Nov-17 09:00N 47°30' W 003°34'1 2.9
2017-Nov-17 08:30N 47°29' W 003°35'1 2.0
2017-Nov-17 08:00N 47°28' W 003°34'2 3.7
2017-Nov-17 07:30N 47°27' W 003°31'2 3.8
2017-Nov-17 07:00N 47°26' W 003°29'2 3.7
2017-Nov-17 06:30N 47°25' W 003°27'2 3.8
2017-Nov-17 06:00N 47°23' W 003°28'2 3.7
2017-Nov-17 05:30N 47°21' W 003°28'2 4.2
2017-Nov-17 05:00N 47°19' W 003°25'12 6.9
2017-Nov-17 03:16N 47°07' W 003°25'1 2.6
2017-Nov-17 02:59N 47°07' W 003°25'2 1.5
2017-Nov-17 01:51N 47°08' W 003°24'1 2.6
2017-Nov-17 01:30N 47°08' W 003°25'3 3.2
2017-Nov-17 00:40N 47°06' W 003°24'2 3.5
2017-Nov-17 00:12N 47°07' W 003°23'1 3.9
2017-Nov-17 00:00N 47°08' W 003°23'2 1.5
2017-Nov-16 22:57N 47°07' W 003°24'2 3.6
2017-Nov-16 22:30N 47°05' W 003°25'2 3.5
2017-Nov-16 21:59N 47°04' W 003°24'2 3.3
2017-Nov-16 21:25N 47°02' W 003°23'3 3.4
2017-Nov-16 20:34N 46°59' W 003°21'0 3.8
2017-Nov-16 20:27N 46°59' W 003°21'2 3.4
2017-Nov-16 19:59N 46°57' W 003°22'21 3.8
2017-Nov-16 14:32N 46°43' W 002°60'14 4.0
2017-Nov-16 10:53N 46°31' W 003°09'1 3.2
2017-Nov-16 10:31N 46°30' W 003°08'1 1.0
2017-Nov-16 09:17N 46°31' W 003°09'6 0.8
2017-Nov-16 01:34N 46°32' W 003°00'5 3.1
2017-Nov-15 23:50N 46°37' W 002°57'2 3.3
2017-Nov-15 23:13N 46°36' W 002°54'1 3.8
2017-Nov-15 22:55N 46°35' W 002°53'2 3.8
2017-Nov-15 22:24N 46°33' W 002°52'3 3.7
2017-Nov-15 21:40N 46°31' W 002°51'9 2.9
2017-Nov-15 18:39N 46°32' W 003°04'1 3.7
2017-Nov-15 18:24N 46°32' W 003°05'46 3.6
2017-Nov-15 05:38N 47°16' W 003°23'1 9.2
2017-Nov-15 05:30N 47°17' W 003°23'5 9.2
2017-Nov-15 05:00N 47°21' W 003°23'5 9.3
2017-Nov-15 04:30N 47°26' W 003°23'5 9.2
2017-Nov-15 04:01N 47°31' W 003°23'5 9.3
2017-Nov-15 03:30N 47°35' W 003°23'5 9.3
2017-Nov-15 03:00N 47°40' W 003°22'4 7.8
2017-Nov-15 02:30N 47°44' W 003°22'0 0.0
2017-Nov-15 02:00N 47°44' W 003°22'2 3.9
2017-Nov-15 01:31N 47°42' W 003°22'5 9.2
2017-Nov-15 01:01N 47°37' W 003°22'5 9.3
2017-Nov-15 00:30N 47°33' W 003°21'5 9.2
2017-Nov-15 00:00N 47°28' W 003°20'5 9.2
2017-Nov-14 23:31N 47°24' W 003°18'5 9.1
2017-Nov-14 23:01N 47°19' W 003°17'5 9.3
2017-Nov-14 22:31N 47°15' W 003°13'11 2.9
2017-Nov-14 18:48N 47°13' W 002°57'1 4.0
2017-Nov-14 18:26N 47°14' W 002°55'  
2017-Nov-11 02:58N 47°44' W 003°22'0 0.3
2017-Nov-11 02:30N 47°44' W 003°22'0 0.0
2017-Nov-11 02:00N 47°44' W 003°22'0 0.7
2017-Nov-11 01:30N 47°43' W 003°22'4 8.3
2017-Nov-11 01:00N 47°39' W 003°22'4 8.5
2017-Nov-11 00:30N 47°35' W 003°23'4 8.3
2017-Nov-11 00:00N 47°31' W 003°24'4 8.2
2017-Nov-10 23:30N 47°27' W 003°25'4 8.3
2017-Nov-10 23:00N 47°23' W 003°26'6 0.7
2017-Nov-10 13:43N 47°17' W 003°21'1 3.6
2017-Nov-10 13:19N 47°18' W 003°23'1 3.1
2017-Nov-10 13:00N 47°18' W 003°22'2 3.5
2017-Nov-10 12:30N 47°17' W 003°20'1 1.0
2017-Nov-10 11:38N 47°17' W 003°21'1 3.7
2017-Nov-10 11:27N 47°17' W 003°22'1 2.0
2017-Nov-10 11:00N 47°18' W 003°22'2 3.7
2017-Nov-10 10:30N 47°17' W 003°21'2 3.3
2017-Nov-10 09:53N 47°18' W 003°23'1 2.6
2017-Nov-10 09:30N 47°18' W 003°22'2 3.5
2017-Nov-10 09:00N 47°16' W 003°20'2 2.0
2017-Nov-10 08:04N 47°17' W 003°22'0 4.2
2017-Nov-10 08:00N 47°18' W 003°23'1 1.7
2017-Nov-10 07:30N 47°18' W 003°21'2 3.5
2017-Nov-10 06:58N 47°16' W 003°20'2 3.6
2017-Nov-10 06:30N 47°15' W 003°18'8 2.6
2017-Nov-10 03:35N 47°09' W 003°24'0 3.7
2017-Nov-10 03:30N 47°08' W 003°24'12 0.5
2017-Nov-09 02:44N 47°18' W 003°34'3 9.0
2017-Nov-09 02:26N 47°20' W 003°32'4 9.1
2017-Nov-09 02:01N 47°24' W 003°30'5 9.2
2017-Nov-09 01:31N 47°28' W 003°27'  
Track history (hours):
 
Tides and Currents Weather Stations Pressure Air Temp Water Temp Dewpoint Dewpoint Depression Visibility Wind Speed Wind Dir Waves Ship Positions

F/V Pasiphae 2

Last reported at 2017-Nov-19 01:24 UTC. Time now 2017-Nov-19 21:54 UTC.
Position N 46°37' W 002°59'.

Length 14 m.

Type: Fishing. MMSI: 228224800.

Date/timePositionNaut miles runAvg speedWind from/ knotsBaromVisibWave heightAir tempDewpointWater temp
2017-Nov-19 01:24N 46°37' W 002°59'9 1.0
2017-Nov-18 16:55N 46°33' W 003°10'1 1.2
2017-Nov-18 15:46N 46°34' W 003°10'40 4.3
2017-Nov-18 06:35N 47°13' W 003°22'3 8.6
2017-Nov-18 06:16N 47°16' W 003°22'4 8.8
2017-Nov-18 05:52N 47°20' W 003°22'3 8.6
2017-Nov-18 05:29N 47°23' W 003°22'4 8.5
2017-Nov-18 05:00N 47°27' W 003°22'4 8.6
2017-Nov-18 04:30N 47°31' W 003°22'4 8.7
2017-Nov-18 04:00N 47°36' W 003°23'4 8.8
2017-Nov-18 03:30N 47°40' W 003°22'4 7.3
2017-Nov-18 03:00N 47°44' W 003°22'0 0.2
2017-Nov-18 02:30N 47°44' W 003°22'0 0.3
2017-Nov-18 02:00N 47°44' W 003°22'0 0.0
2017-Nov-18 01:30N 47°44' W 003°22'0 0.0
2017-Nov-18 01:00N 47°44' W 003°22'0 0.0
2017-Nov-18 00:30N 47°44' W 003°22'4 7.8
2017-Nov-18 00:00N 47°40' W 003°22'4 8.9
2017-Nov-17 23:30N 47°35' W 003°23'4 8.8
2017-Nov-17 23:00N 47°33' W 003°28'3 5.6
2017-Nov-17 22:30N 47°30' W 003°30'2 3.9
2017-Nov-17 22:00N 47°28' W 003°31'2 3.8
2017-Nov-17 21:30N 47°27' W 003°30'2 3.9
2017-Nov-17 21:00N 47°25' W 003°29'1 2.9
2017-Nov-17 20:30N 47°26' W 003°28'2 3.7
2017-Nov-17 20:00N 47°28' W 003°30'2 3.6
2017-Nov-17 19:30N 47°30' W 003°30'2 3.4
2017-Nov-17 19:00N 47°31' W 003°30'1 2.9
2017-Nov-17 18:30N 47°31' W 003°33'2 3.2
2017-Nov-17 18:00N 47°30' W 003°32'2 3.6
2017-Nov-17 17:30N 47°28' W 003°31'2 3.6
2017-Nov-17 17:00N 47°26' W 003°30'2 3.4
2017-Nov-17 16:30N 47°27' W 003°33'2 3.7
2017-Nov-17 16:00N 47°27' W 003°36'2 0.3
2017-Nov-17 10:04N 47°29' W 003°35'0 3.8
2017-Nov-17 10:00N 47°29' W 003°35'2 3.6
2017-Nov-17 09:30N 47°31' W 003°36'1 3.1
2017-Nov-17 09:00N 47°30' W 003°34'1 2.9
2017-Nov-17 08:30N 47°29' W 003°35'1 2.0
2017-Nov-17 08:00N 47°28' W 003°34'2 3.7
2017-Nov-17 07:30N 47°27' W 003°31'2 3.8
2017-Nov-17 07:00N 47°26' W 003°29'2 3.7
2017-Nov-17 06:30N 47°25' W 003°27'2 3.8
2017-Nov-17 06:00N 47°23' W 003°28'2 3.7
2017-Nov-17 05:30N 47°21' W 003°28'2 4.2
2017-Nov-17 05:00N 47°19' W 003°25'12 6.9
2017-Nov-17 03:16N 47°07' W 003°25'1 2.6
2017-Nov-17 02:59N 47°07' W 003°25'2 1.5
2017-Nov-17 01:51N 47°08' W 003°24'1 2.6
2017-Nov-17 01:30N 47°08' W 003°25'3 3.2
2017-Nov-17 00:40N 47°06' W 003°24'2 3.5
2017-Nov-17 00:12N 47°07' W 003°23'1 3.9
2017-Nov-17 00:00N 47°08' W 003°23'2 1.5
2017-Nov-16 22:57N 47°07' W 003°24'2 3.6
2017-Nov-16 22:30N 47°05' W 003°25'2 3.5
2017-Nov-16 21:59N 47°04' W 003°24'2 3.3
2017-Nov-16 21:25N 47°02' W 003°23'3 3.4
2017-Nov-16 20:34N 46°59' W 003°21'0 3.8
2017-Nov-16 20:27N 46°59' W 003°21'2 3.4
2017-Nov-16 19:59N 46°57' W 003°22'21 3.8
2017-Nov-16 14:32N 46°43' W 002°60'14 4.0
2017-Nov-16 10:53N 46°31' W 003°09'1 3.2
2017-Nov-16 10:31N 46°30' W 003°08'1 1.0
2017-Nov-16 09:17N 46°31' W 003°09'6 0.8
2017-Nov-16 01:34N 46°32' W 003°00'5 3.1
2017-Nov-15 23:50N 46°37' W 002°57'2 3.3
2017-Nov-15 23:13N 46°36' W 002°54'1 3.8
2017-Nov-15 22:55N 46°35' W 002°53'2 3.8
2017-Nov-15 22:24N 46°33' W 002°52'3 3.7
2017-Nov-15 21:40N 46°31' W 002°51'9 2.9
2017-Nov-15 18:39N 46°32' W 003°04'1 3.7
2017-Nov-15 18:24N 46°32' W 003°05'46 3.6
2017-Nov-15 05:38N 47°16' W 003°23'1 9.2
2017-Nov-15 05:30N 47°17' W 003°23'5 9.2
2017-Nov-15 05:00N 47°21' W 003°23'5 9.3
2017-Nov-15 04:30N 47°26' W 003°23'5 9.2
2017-Nov-15 04:01N 47°31' W 003°23'5 9.3
2017-Nov-15 03:30N 47°35' W 003°23'5 9.3
2017-Nov-15 03:00N 47°40' W 003°22'4 7.8
2017-Nov-15 02:30N 47°44' W 003°22'0 0.0
2017-Nov-15 02:00N 47°44' W 003°22'2 3.9
2017-Nov-15 01:31N 47°42' W 003°22'5 9.2
2017-Nov-15 01:01N 47°37' W 003°22'5 9.3
2017-Nov-15 00:30N 47°33' W 003°21'5 9.2
2017-Nov-15 00:00N 47°28' W 003°20'5 9.2
2017-Nov-14 23:31N 47°24' W 003°18'5 9.1
2017-Nov-14 23:01N 47°19' W 003°17'5 9.3
2017-Nov-14 22:31N 47°15' W 003°13'11 2.9
2017-Nov-14 18:48N 47°13' W 002°57'1 4.0
2017-Nov-14 18:26N 47°14' W 002°55'  
2017-Nov-11 02:58N 47°44' W 003°22'0 0.3
2017-Nov-11 02:30N 47°44' W 003°22'0 0.0
2017-Nov-11 02:00N 47°44' W 003°22'0 0.7
2017-Nov-11 01:30N 47°43' W 003°22'4 8.3
2017-Nov-11 01:00N 47°39' W 003°22'4 8.5
2017-Nov-11 00:30N 47°35' W 003°23'4 8.3
2017-Nov-11 00:00N 47°31' W 003°24'4 8.2
2017-Nov-10 23:30N 47°27' W 003°25'4 8.3
2017-Nov-10 23:00N 47°23' W 003°26'6 0.7
2017-Nov-10 13:43N 47°17' W 003°21'1 3.6
2017-Nov-10 13:19N 47°18' W 003°23'1 3.1
2017-Nov-10 13:00N 47°18' W 003°22'2 3.5
2017-Nov-10 12:30N 47°17' W 003°20'1 1.0
2017-Nov-10 11:38N 47°17' W 003°21'1 3.7
2017-Nov-10 11:27N 47°17' W 003°22'1 2.0
2017-Nov-10 11:00N 47°18' W 003°22'2 3.7
2017-Nov-10 10:30N 47°17' W 003°21'2 3.3
2017-Nov-10 09:53N 47°18' W 003°23'1 2.6
2017-Nov-10 09:30N 47°18' W 003°22'2 3.5
2017-Nov-10 09:00N 47°16' W 003°20'2 2.0
2017-Nov-10 08:04N 47°17' W 003°22'0 4.2
2017-Nov-10 08:00N 47°18' W 003°23'1 1.7
2017-Nov-10 07:30N 47°18' W 003°21'2 3.5
2017-Nov-10 06:58N 47°16' W 003°20'2 3.6
2017-Nov-10 06:30N 47°15' W 003°18'8 2.6
2017-Nov-10 03:35N 47°09' W 003°24'0 3.7
2017-Nov-10 03:30N 47°08' W 003°24'12 0.5
2017-Nov-09 02:44N 47°18' W 003°34'3 9.0
2017-Nov-09 02:26N 47°20' W 003°32'4 9.1
2017-Nov-09 02:01N 47°24' W 003°30'5 9.2
2017-Nov-09 01:31N 47°28' W 003°27'  

Dump ship's entire track history